Time;durP1;ratioP1;P1;durP2;ratioP2;P2;SDS_P1;SDS_P2;PMS_P1;PMS_P2;Temp;Humidity;BMP_temperature;BMP_pressure;BME280_temperature;BME280_humidity;BME280_pressure;Samples;Min_cycle;Max_cycle;Signal;HPM_P1;HPM_P2
2024/02/01 00:01:29;;;;;;;37.63;16.50;;;2.30;99.90;;;;;;5025343;28;20694;-61
2024/02/01 00:03:55;;;;;;;29.17;16.00;;;2.30;99.90;;;;;;5029629;28;20206;-61
2024/02/01 00:06:20;;;;;;;28.73;15.40;;;2.30;99.90;;;;;;5034633;28;20184;-60
2024/02/01 00:08:46;;;;;;;25.10;14.90;;;2.30;99.90;;;;;;5030692;28;20183;-61
2024/02/01 00:11:12;;;;;;;25.93;15.23;;;2.30;99.90;;;;;;5028669;28;20191;-61
2024/02/01 00:13:37;;;;;;;32.80;16.37;;;2.30;99.90;;;;;;5031048;28;20182;-60
2024/02/01 00:16:03;;;;;;;27.20;15.50;;;2.30;99.90;;;;;;5032831;28;20170;-61
2024/02/01 00:18:29;;;;;;;35.50;17.03;;;2.40;99.90;;;;;;5032636;28;20258;-60
2024/02/01 00:20:54;;;;;;;36.53;16.40;;;2.30;99.90;;;;;;5032180;28;20578;-61
2024/02/01 00:23:20;;;;;;;37.63;17.00;;;2.40;99.90;;;;;;5033340;28;20207;-61
2024/02/01 00:25:45;;;;;;;30.90;15.83;;;2.40;99.90;;;;;;5028700;28;20201;-60
2024/02/01 00:28:11;;;;;;;25.60;16.40;;;2.40;99.90;;;;;;5033105;28;20179;-60
2024/02/01 00:30:37;;;;;;;26.80;16.37;;;2.40;99.90;;;;;;5038495;28;20283;-60
2024/02/01 00:33:03;;;;;;;25.00;15.77;;;2.40;99.90;;;;;;5033310;28;20175;-60
2024/02/01 00:35:29;;;;;;;26.67;15.70;;;2.40;99.90;;;;;;5028012;28;20807;-61
2024/02/01 00:37:54;;;;;;;27.80;16.60;;;2.40;99.90;;;;;;5030197;28;20463;-60
2024/02/01 00:40:20;;;;;;;30.17;15.77;;;2.40;99.90;;;;;;5032779;28;20221;-61
2024/02/01 00:42:45;;;;;;;27.17;16.40;;;2.50;99.90;;;;;;5031918;28;20603;-58
2024/02/01 00:45:11;;;;;;;24.43;16.50;;;2.50;99.90;;;;;;5028259;28;20204;-60
2024/02/01 00:47:36;;;;;;;31.70;16.10;;;2.50;99.90;;;;;;5032117;28;20244;-60
2024/02/01 00:50:03;;;;;;;28.00;14.60;;;2.50;99.90;;;;;;5033896;28;20218;-60
2024/02/01 00:52:28;;;;;;;28.30;15.13;;;2.60;99.90;;;;;;5031250;28;20175;-62
2024/02/01 00:54:54;;;;;;;24.53;14.43;;;2.70;99.90;;;;;;5028743;28;20563;-60
2024/02/01 00:57:19;;;;;;;33.17;14.17;;;2.80;99.90;;;;;;5031945;28;20258;-60
2024/02/01 00:59:45;;;;;;;25.63;15.43;;;3.00;99.90;;;;;;5035212;28;20669;-60
2024/02/01 01:02:10;;;;;;;24.00;13.60;;;3.10;99.90;;;;;;5029795;28;20191;-60
2024/02/01 01:04:36;;;;;;;31.90;15.03;;;3.20;99.90;;;;;;5027224;28;20207;-60
2024/02/01 01:07:02;;;;;;;26.73;14.27;;;3.30;99.90;;;;;;5026196;28;20179;-60
2024/02/01 01:09:27;;;;;;;30.70;13.40;;;3.50;99.90;;;;;;5032875;28;20285;-62
2024/02/01 01:11:53;;;;;;;32.30;14.20;;;3.60;99.90;;;;;;5031489;28;20199;-62
2024/02/01 01:14:19;;;;;;;31.33;13.30;;;3.70;99.90;;;;;;5030213;28;20282;-61
2024/02/01 01:16:44;;;;;;;25.70;13.50;;;3.70;99.90;;;;;;5032778;28;20179;-60
2024/02/01 01:19:10;;;;;;;23.97;12.57;;;3.80;99.90;;;;;;5041247;28;20233;-60
2024/02/01 01:21:35;;;;;;;24.23;14.00;;;3.80;99.90;;;;;;5032583;28;20202;-60
2024/02/01 01:24:01;;;;;;;25.83;14.17;;;3.90;99.90;;;;;;5038787;28;20680;-61
2024/02/01 01:26:26;;;;;;;24.20;14.10;;;3.90;99.90;;;;;;5047416;28;20190;-60
2024/02/01 01:28:52;;;;;;;21.90;13.63;;;3.90;99.90;;;;;;5040470;28;20172;-60
2024/02/01 01:31:18;;;;;;;29.50;13.90;;;3.90;99.90;;;;;;5041241;28;20208;-61
2024/02/01 01:33:43;;;;;;;27.13;14.07;;;4.00;99.90;;;;;;5031708;28;20715;-61
2024/02/01 01:36:09;;;;;;;23.00;12.40;;;4.00;99.90;;;;;;5029644;28;20233;-60
2024/02/01 01:38:34;;;;;;;26.93;12.90;;;4.10;99.90;;;;;;5028833;28;20175;-60
2024/02/01 01:41:00;;;;;;;24.83;12.37;;;4.10;99.90;;;;;;5028105;28;20207;-61
2024/02/01 01:43:26;;;;;;;26.67;14.00;;;4.20;99.90;;;;;;5031350;28;20175;-60
2024/02/01 01:46:04;;;;;;;24.73;12.77;;;4.20;99.90;;;;;;5034517;28;20206;-60
2024/02/01 01:48:31;;;;;;;27.90;14.60;;;4.30;99.90;;;;;;5028885;28;20174;-59
2024/02/01 01:50:57;;;;;;;27.00;15.20;;;4.30;99.90;;;;;;5030158;28;20458;-60
2024/02/01 01:53:26;;;;;;;27.53;14.90;;;4.20;99.90;;;;;;5030778;28;20524;-60
2024/02/01 01:55:53;;;;;;;25.10;15.03;;;4.10;99.90;;;;;;5026467;28;20442;-60
2024/02/01 01:58:20;;;;;;;25.87;14.23;;;3.90;99.90;;;;;;5030097;28;20857;-60
2024/02/01 02:00:46;;;;;;;22.20;14.27;;;3.80;99.90;;;;;;5028262;28;20472;-60
2024/02/01 02:03:12;;;;;;;27.60;14.50;;;3.70;99.90;;;;;;5028022;28;20437;-60
2024/02/01 02:05:38;;;;;;;29.43;15.60;;;3.60;99.90;;;;;;5027235;28;21033;-61
2024/02/01 02:08:04;;;;;;;36.43;16.37;;;3.60;99.90;;;;;;5034773;28;20600;-57
2024/02/01 02:10:30;;;;;;;27.77;15.63;;;3.60;99.90;;;;;;5025511;28;20960;-59
2024/02/01 02:12:56;;;;;;;30.33;15.30;;;3.60;99.90;;;;;;5030580;28;20517;-59
2024/02/01 02:15:21;;;;;;;31.83;17.10;;;3.50;99.90;;;;;;5032410;28;20692;-61
2024/02/01 02:17:48;;;;;;;33.27;16.47;;;3.50;99.90;;;;;;5030582;28;20191;-59
2024/02/01 02:20:17;;;;;;;31.63;17.97;;;3.40;99.90;;;;;;5026006;28;20203;-61
2024/02/01 02:22:46;;;;;;;26.83;15.80;;;3.30;99.90;;;;;;5025160;28;20438;-61
2024/02/01 02:25:13;;;;;;;33.40;17.00;;;3.30;99.90;;;;;;5025214;28;20503;-62
2024/02/01 02:27:41;;;;;;;29.17;16.77;;;3.30;99.90;;;;;;5027371;28;20438;-60
2024/02/01 02:30:07;;;;;;;34.30;17.30;;;3.30;99.90;;;;;;5030323;28;20864;-59
2024/02/01 02:32:33;;;;;;;38.50;17.70;;;3.30;99.90;;;;;;5033606;28;20430;-60
2024/02/01 02:34:59;;;;;;;35.03;18.20;;;3.30;99.90;;;;;;5029280;28;20487;-60
2024/02/01 02:37:24;;;;;;;28.23;15.83;;;3.20;99.90;;;;;;5030295;28;20186;-61
2024/02/01 02:39:50;;;;;;;29.97;15.90;;;3.20;99.90;;;;;;5026149;28;20172;-60
2024/02/01 02:42:16;;;;;;;34.57;16.60;;;3.10;99.90;;;;;;5030757;28;22233;-60
2024/02/01 02:44:41;;;;;;;39.80;16.43;;;3.10;99.90;;;;;;5030225;28;20195;-57
2024/02/01 02:47:07;;;;;;;37.07;17.33;;;3.10;99.90;;;;;;5024857;28;20183;-60
2024/02/01 02:49:32;;;;;;;34.50;17.30;;;3.00;99.90;;;;;;5029889;28;20268;-60
2024/02/01 02:51:58;;;;;;;29.33;15.70;;;3.00;99.90;;;;;;5029436;28;20191;-60
2024/02/01 02:54:24;;;;;;;26.53;15.60;;;3.00;99.90;;;;;;5025066;28;20174;-60
2024/02/01 02:56:49;;;;;;;29.27;14.57;;;3.00;99.90;;;;;;5027094;28;20188;-61
2024/02/01 02:59:17;;;;;;;21.43;12.13;;;3.10;99.90;;;;;;5031043;28;20175;-60
2024/02/01 03:01:44;;;;;;;22.77;11.97;;;3.10;99.90;;;;;;5025837;28;20261;-60
2024/02/01 03:04:10;;;;;;;22.80;13.00;;;3.30;99.90;;;;;;5025657;28;20942;-61
2024/02/01 03:06:36;;;;;;;19.23;11.10;;;3.40;99.90;;;;;;5026510;28;20514;-60
2024/02/01 03:09:01;;;;;;;22.60;11.00;;;3.60;99.90;;;;;;5030674;28;20175;-60
2024/02/01 03:11:27;;;;;;;25.20;12.27;;;3.80;99.90;;;;;;5023698;28;20206;-62
2024/02/01 03:13:52;;;;;;;18.83;10.10;;;4.00;99.90;;;;;;5028960;28;20183;-60
2024/02/01 03:16:20;;;;;;;17.63;9.63;;;4.00;99.90;;;;;;5029254;28;20273;-61
2024/02/01 03:18:46;;;;;;;19.77;11.37;;;4.10;99.90;;;;;;5033495;28;20654;-59
2024/02/01 03:21:13;;;;;;;23.00;12.37;;;4.20;99.90;;;;;;5042094;28;20549;-59
2024/02/01 03:23:44;;;;;;;25.67;11.00;;;4.20;99.90;;;;;;5037325;28;20445;-60
2024/02/01 03:26:11;;;;;;;18.60;10.50;;;4.30;99.90;;;;;;5036044;28;20466;-60
2024/02/01 03:28:40;;;;;;;20.80;10.10;;;4.40;99.90;;;;;;5038171;28;20568;-60
2024/02/01 03:31:06;;;;;;;24.50;11.57;;;4.40;99.90;;;;;;5034616;28;20544;-61
2024/02/01 03:33:38;;;;;;;21.13;10.30;;;4.50;99.90;;;;;;5033661;28;20450;-60
2024/02/01 03:36:07;;;;;;;20.70;11.50;;;4.50;99.90;;;;;;5045765;28;20529;-61
2024/02/01 03:38:33;;;;;;;35.73;14.23;;;4.50;99.90;;;;;;5040383;28;20419;-60
2024/02/01 03:40:58;;;;;;;27.17;13.50;;;4.50;99.90;;;;;;5050001;28;20445;-60
2024/02/01 03:43:24;;;;;;;23.57;14.30;;;4.40;99.90;;;;;;5044670;28;20438;-60
2024/02/01 03:45:50;;;;;;;23.00;13.77;;;4.20;99.90;;;;;;5044641;28;20215;-61
2024/02/01 03:48:17;;;;;;;32.87;14.77;;;4.10;99.90;;;;;;5041892;28;20263;-60
2024/02/01 03:50:42;;;;;;;27.70;13.47;;;4.00;99.90;;;;;;5037543;28;20225;-57
2024/02/01 03:53:10;;;;;;;28.00;14.70;;;3.90;99.90;;;;;;5047218;28;20413;-58
2024/02/01 03:55:37;;;;;;;25.40;13.47;;;3.90;99.90;;;;;;5050731;28;20253;-61
2024/02/01 03:58:03;;;;;;;15.63;9.50;;;3.80;99.90;;;;;;5046844;28;20433;-61
2024/02/01 04:00:30;;;;;;;15.30;9.10;;;3.80;99.90;;;;;;5038295;28;20452;-58
2024/02/01 04:02:57;;;;;;;21.83;9.80;;;3.90;99.90;;;;;;5039926;28;20433;-61
2024/02/01 04:05:26;;;;;;;21.30;11.27;;;4.00;99.90;;;;;;5033546;28;20604;-61
2024/02/01 04:07:53;;;;;;;29.90;14.00;;;4.10;99.90;;;;;;5028734;28;20426;-61
2024/02/01 04:10:19;;;;;;;23.00;14.10;;;4.10;99.90;;;;;;5032434;28;20476;-61
2024/02/01 04:12:45;;;;;;;29.57;14.20;;;4.00;99.90;;;;;;5029318;28;20434;-61
2024/02/01 04:15:11;;;;;;;29.43;15.30;;;3.90;99.90;;;;;;5034252;28;20175;-61
2024/02/01 04:17:37;;;;;;;30.53;16.47;;;3.80;99.90;;;;;;5030132;28;20475;-61
2024/02/01 04:20:05;;;;;;;28.83;15.87;;;3.70;99.90;;;;;;5031008;28;20523;-60
2024/02/01 04:22:31;;;;;;;32.30;16.03;;;3.60;99.90;;;;;;5033564;28;20262;-62
2024/02/01 04:24:57;;;;;;;33.23;16.63;;;3.50;99.90;;;;;;5030285;28;20457;-61
2024/02/01 04:27:22;;;;;;;28.60;15.03;;;3.50;99.90;;;;;;5031351;28;20448;-61
2024/02/01 04:29:48;;;;;;;30.30;17.20;;;3.40;99.90;;;;;;5029853;28;20645;-61
2024/02/01 04:32:14;;;;;;;29.90;16.10;;;3.40;99.90;;;;;;5035499;28;20304;-60
2024/02/01 04:34:40;;;;;;;25.47;14.60;;;3.30;99.90;;;;;;5029580;28;20660;-60
2024/02/01 04:37:06;;;;;;;31.07;15.50;;;3.40;99.90;;;;;;5031343;28;20440;-59
2024/02/01 04:39:33;;;;;;;25.67;14.00;;;3.40;99.90;;;;;;5024176;28;20183;-61
2024/02/01 04:42:14;;;;;;;37.30;13.83;;;3.40;99.90;;;;;;5032127;28;20484;-59
2024/02/01 04:44:43;;;;;;;21.17;11.70;;;3.50;99.90;;;;;;5028013;28;20998;-59
2024/02/01 04:47:10;;;;;;;19.93;10.90;;;3.60;99.90;;;;;;5026340;28;20811;-59
2024/02/01 04:49:36;;;;;;;20.27;10.93;;;3.70;99.90;;;;;;5028777;28;20949;-59
2024/02/01 04:52:03;;;;;;;26.17;13.03;;;3.80;99.90;;;;;;5028138;28;20870;-61
2024/02/01 04:54:29;;;;;;;30.07;15.07;;;3.90;99.90;;;;;;5033134;28;20802;-59
2024/02/01 04:56:55;;;;;;;23.70;15.07;;;3.90;99.90;;;;;;5027429;28;20430;-59
2024/02/01 04:59:21;;;;;;;27.67;15.00;;;4.00;99.90;;;;;;5028230;28;20187;-55
2024/02/01 05:01:47;;;;;;;24.40;12.90;;;4.00;99.90;;;;;;5022829;28;20469;-57
2024/02/01 05:04:13;;;;;;;26.23;14.50;;;3.90;99.90;;;;;;5029167;28;20195;-61
2024/02/01 05:06:40;;;;;;;23.20;13.23;;;3.90;99.90;;;;;;5030079;28;20186;-60
2024/02/01 05:09:23;;;;;;;28.40;15.17;;;3.90;99.90;;;;;;5033811;28;20519;-59
2024/02/01 05:11:50;;;;;;;30.97;16.60;;;3.90;99.90;;;;;;5033872;28;20544;-60
2024/02/01 05:14:16;;;;;;;28.50;16.60;;;3.80;99.90;;;;;;5027846;28;20501;-59
2024/02/01 05:16:41;;;;;;;34.53;16.47;;;3.80;99.90;;;;;;5023350;28;20450;-59
2024/02/01 05:19:08;;;;;;;31.93;14.90;;;3.70;99.90;;;;;;5031004;28;20187;-59
2024/02/01 05:21:34;;;;;;;22.40;13.10;;;3.80;99.90;;;;;;5031865;28;20227;-59
2024/02/01 05:24:00;;;;;;;26.20;13.27;;;3.80;99.90;;;;;;5029040;28;20445;-61
2024/02/01 05:26:25;;;;;;;26.17;12.00;;;3.90;99.90;;;;;;5034299;28;20447;-60
2024/02/01 05:28:52;;;;;;;25.63;13.23;;;4.00;99.90;;;;;;5035962;28;20266;-61
2024/02/01 05:31:19;;;;;;;23.90;15.07;;;4.00;99.90;;;;;;5035392;28;20706;-59
2024/02/01 05:33:45;;;;;;;27.87;16.07;;;4.10;99.90;;;;;;5037522;28;20795;-60
2024/02/01 05:36:11;;;;;;;28.03;14.30;;;4.00;99.90;;;;;;5040800;28;20516;-57
2024/02/01 05:38:38;;;;;;;26.10;14.90;;;4.00;99.90;;;;;;5036918;28;21094;-61
2024/02/01 05:41:11;;;;;;;32.40;16.30;;;3.90;99.90;;;;;;5028847;28;20956;-60
2024/02/01 05:43:40;;;;;;;24.53;14.70;;;3.90;99.90;;;;;;5033833;28;20439;-61
2024/02/01 05:46:09;;;;;;;31.30;14.87;;;3.90;99.90;;;;;;5038149;28;20471;-60
2024/02/01 05:48:35;;;;;;;26.00;14.10;;;3.90;99.90;;;;;;5043384;28;20513;-60
2024/02/01 05:51:01;;;;;;;31.63;14.70;;;3.90;99.90;;;;;;5038497;28;20486;-61
2024/02/01 05:53:27;;;;;;;24.60;15.00;;;3.90;99.90;;;;;;5033134;28;20507;-61
2024/02/01 05:55:53;;;;;;;23.90;13.30;;;3.90;99.90;;;;;;5046205;28;20940;-59
2024/02/01 05:58:19;;;;;;;23.27;15.07;;;3.90;99.90;;;;;;5034448;28;20187;-59
2024/02/01 06:00:45;;;;;;;30.03;14.93;;;3.90;99.90;;;;;;5040214;28;20725;-60
2024/02/01 06:03:10;;;;;;;28.60;14.77;;;3.90;99.90;;;;;;5031912;28;20583;-59
2024/02/01 06:05:36;;;;;;;23.70;14.50;;;3.90;99.90;;;;;;5042012;28;20684;-60
2024/02/01 06:08:02;;;;;;;22.17;12.57;;;3.90;99.90;;;;;;5033781;28;20187;-60
2024/02/01 06:10:27;;;;;;;23.67;14.47;;;3.80;99.90;;;;;;5037061;28;20214;-59
2024/02/01 06:12:53;;;;;;;24.30;13.50;;;3.80;99.90;;;;;;5044981;28;20190;-59
2024/02/01 06:15:19;;;;;;;31.67;14.17;;;3.80;99.90;;;;;;5042465;28;20283;-58
2024/02/01 06:17:45;;;;;;;32.60;15.43;;;3.80;99.90;;;;;;5043110;28;20437;-59
2024/02/01 06:20:11;;;;;;;22.60;13.50;;;3.80;99.90;;;;;;5035376;28;20202;-60
2024/02/01 06:22:36;;;;;;;21.73;13.67;;;3.80;99.90;;;;;;5018455;28;20550;-59
2024/02/01 06:25:03;;;;;;;21.77;12.73;;;3.80;99.90;;;;;;5030171;28;20458;-59
2024/02/01 06:27:29;;;;;;;21.67;12.67;;;3.80;99.90;;;;;;5040211;28;20179;-59
2024/02/01 06:29:58;;;;;;;31.50;13.93;;;3.80;99.90;;;;;;5042261;28;20409;-60
2024/02/01 06:32:24;;;;;;;25.63;15.00;;;3.80;99.90;;;;;;5034806;28;20262;-60
2024/02/01 06:34:57;;;;;;;22.70;13.40;;;3.90;99.90;;;;;;5045695;28;20441;-59
2024/02/01 06:37:28;;;;;;;31.57;15.97;;;4.00;99.90;;;;;;5034448;28;20433;-59
2024/02/01 06:42:55;;;;;;;25.30;15.23;;;4.20;99.90;;;;;;5043767;28;20424;-59
2024/02/01 06:45:28;;;;;;;28.47;15.50;;;4.30;99.90;;;;;;5039968;28;20469;-59
2024/02/01 06:48:09;;;;;;;30.23;16.27;;;4.40;99.90;;;;;;5037620;28;21155;-59
2024/02/01 06:53:20;;;;;;;34.80;15.60;;;4.60;99.90;;;;;;5043602;28;20468;-59
2024/02/01 06:55:57;;;;;;;27.17;15.27;;;4.70;99.90;;;;;;5036082;28;20528;-59
2024/02/01 06:59:11;;;;;;;33.07;15.90;;;4.70;99.90;;;;;;5043534;28;20434;-60
2024/02/01 07:01:33;;;;;;;33.97;16.13;;;4.80;99.90;;;;;;5037446;28;20949;-60
2024/02/01 07:04:15;;;;;;;27.50;16.40;;;4.80;99.90;;;;;;5028045;28;20508;-65
2024/02/01 07:09:36;;;;;;;29.20;16.53;;;4.90;99.90;;;;;;5044707;28;20433;-59
2024/02/01 07:12:18;;;;;;;29.97;17.90;;;4.90;99.90;;;;;;5036821;28;21041;-59
2024/02/01 07:14:58;;;;;;;34.43;17.03;;;5.00;99.90;;;;;;5043584;28;20435;-59
2024/02/01 07:17:28;;;;;;;30.47;16.63;;;5.00;99.90;;;;;;5038195;28;20963;-60
2024/02/01 07:19:57;;;;;;;31.17;17.27;;;5.00;99.90;;;;;;5043481;28;20434;-60
2024/02/01 07:22:39;;;;;;;36.33;19.27;;;5.10;99.90;;;;;;5050058;28;20938;-59
2024/02/01 07:25:33;;;;;;;37.60;19.20;;;5.10;99.90;;;;;;5048074;28;20461;-60
2024/02/01 07:58:21;;;;;;;32.83;18.77;;;5.40;99.90;;;;;;5044550;28;20494;-60
2024/02/01 08:00:51;;;;;;;35.03;19.30;;;5.40;99.90;;;;;;5039609;28;20461;-60
2024/02/01 08:08:38;;;;;;;32.03;18.63;;;5.50;99.90;;;;;;5044144;28;20955;-60
2024/02/01 08:11:05;;;;;;;35.27;18.43;;;5.50;99.90;;;;;;5039722;28;20445;-61
2024/02/01 08:13:31;;;;;;;37.17;19.80;;;5.50;99.90;;;;;;5045371;28;20429;-60
2024/02/01 08:15:57;;;;;;;37.87;20.37;;;5.50;99.90;;;;;;5041180;28;20793;-62
2024/02/01 08:18:26;;;;;;;34.10;18.50;;;5.40;99.90;;;;;;5040284;28;20433;-60
2024/02/01 08:20:53;;;;;;;35.10;19.07;;;5.40;99.90;;;;;;5045758;28;20440;-60
2024/02/01 08:23:19;;;;;;;52.67;26.90;;;5.30;99.90;;;;;;5044527;28;20448;-60
2024/02/01 08:25:51;;;;;;;44.90;25.73;;;5.30;99.90;;;;;;5041851;28;20808;-60
2024/02/01 08:28:18;;;;;;;40.03;21.70;;;5.30;99.90;;;;;;5047157;28;20430;-59
2024/02/01 08:30:45;;;;;;;38.47;21.93;;;5.30;99.90;;;;;;5039782;28;20535;-61
2024/02/01 08:33:20;;;;;;;31.97;19.00;;;5.30;99.90;;;;;;5045709;28;20425;-61
2024/02/01 08:35:47;;;;;;;32.67;18.00;;;5.30;99.90;;;;;;5040879;28;20430;-60
2024/02/01 08:38:15;;;;;;;38.17;20.30;;;5.30;99.90;;;;;;5047662;28;20911;-60
2024/02/01 08:40:41;;;;;;;33.87;18.73;;;5.30;99.90;;;;;;5050973;28;20513;-59
2024/02/01 08:43:12;;;;;;;38.80;19.90;;;5.30;99.90;;;;;;5049973;28;20421;-59
2024/02/01 08:45:40;;;;;;;40.70;20.67;;;5.40;99.90;;;;;;5043659;28;20461;-60
2024/02/01 08:48:08;;;;;;;31.40;17.73;;;5.40;99.90;;;;;;5046038;28;20437;-59
2024/02/01 08:50:48;;;;;;;36.13;19.60;;;5.40;99.90;;;;;;5042450;28;20425;-59
2024/02/01 08:53:15;;;;;;;32.83;19.73;;;5.50;99.90;;;;;;5046277;28;20425;-60
2024/02/01 08:55:41;;;;;;;33.03;19.33;;;5.50;99.90;;;;;;5045744;28;20520;-62
2024/02/01 08:58:11;;;;;;;34.47;19.57;;;5.50;99.90;;;;;;5039167;28;20426;-62
2024/02/01 09:00:38;;;;;;;35.67;20.10;;;5.50;99.90;;;;;;5045061;28;20469;-61
2024/02/01 09:03:15;;;;;;;36.07;19.20;;;5.50;99.90;;;;;;5043135;28;20849;-60
2024/02/01 09:05:42;;;;;;;31.73;18.83;;;5.60;99.90;;;;;;5038478;28;20460;-61
2024/02/01 09:08:15;;;;;;;37.57;20.10;;;5.60;99.90;;;;;;5049422;28;20424;-60
2024/02/01 09:10:50;;;;;;;32.60;19.70;;;5.60;99.90;;;;;;5048773;28;20936;-60
2024/02/01 09:13:22;;;;;;;33.63;19.03;;;5.60;99.90;;;;;;5044486;28;20944;-61
2024/02/01 09:15:48;;;;;;;31.90;19.50;;;5.60;99.90;;;;;;5043465;28;20465;-60
2024/02/01 09:18:15;;;;;;;31.13;19.13;;;5.60;99.90;;;;;;5047816;28;20434;-60
2024/02/01 09:20:41;;;;;;;39.77;20.10;;;5.60;99.90;;;;;;5045417;28;20552;-60
2024/02/01 09:23:08;;;;;;;35.43;19.13;;;5.60;99.90;;;;;;5041400;28;20981;-61
2024/02/01 09:25:34;;;;;;;37.47;19.70;;;5.70;99.90;;;;;;5046828;28;20457;-61
2024/02/01 09:28:00;;;;;;;35.00;19.10;;;5.70;99.90;;;;;;5041180;28;20498;-61
2024/02/01 09:30:28;;;;;;;33.50;19.30;;;5.70;99.90;;;;;;5034007;28;20914;-61
2024/02/01 09:32:54;;;;;;;32.03;18.90;;;5.70;99.90;;;;;;5041562;28;20175;-61
2024/02/01 09:35:22;;;;;;;35.73;19.10;;;5.70;99.90;;;;;;5035856;28;20819;-61
2024/02/01 09:37:53;;;;;;;34.53;19.00;;;5.70;99.90;;;;;;5047382;28;20409;-61
2024/02/01 09:40:23;;;;;;;26.60;17.07;;;5.80;99.90;;;;;;5044371;28;20445;-61
2024/02/01 09:42:50;;;;;;;41.07;22.23;;;5.80;99.90;;;;;;5048570;28;20463;-60
2024/02/01 09:45:20;;;;;;;40.20;19.07;;;5.80;99.90;;;;;;5036338;28;20454;-60
2024/02/01 09:47:47;;;;;;;29.30;17.47;;;5.80;99.90;;;;;;5038713;28;20923;-61
2024/02/01 09:50:15;;;;;;;30.60;16.53;;;5.80;99.90;;;;;;5044239;28;20465;-60
2024/02/01 09:52:46;;;;;;;28.60;17.40;;;5.80;99.90;;;;;;5038278;28;20442;-60
2024/02/01 09:55:19;;;;;;;31.23;16.73;;;5.80;99.90;;;;;;5035114;28;20587;-61
2024/02/01 09:57:47;;;;;;;29.53;15.47;;;5.80;99.90;;;;;;5039510;28;20901;-60
2024/02/01 10:00:15;;;;;;;32.27;16.93;;;5.80;99.90;;;;;;5044704;28;20437;-60
2024/02/01 10:02:47;;;;;;;31.73;16.83;;;5.80;99.90;;;;;;5035746;28;20431;-60
2024/02/01 10:05:13;;;;;;;35.60;17.60;;;5.80;99.90;;;;;;5032556;28;20460;-61
2024/02/01 10:07:39;;;;;;;28.77;16.03;;;5.80;99.90;;;;;;5030848;28;20500;-61
2024/02/01 10:10:05;;;;;;;29.13;16.67;;;5.80;99.90;;;;;;5037106;28;20426;-61
2024/02/01 10:12:32;;;;;;;22.37;13.40;;;5.90;99.90;;;;;;5035885;28;20426;-60
2024/02/01 10:14:58;;;;;;;25.03;14.20;;;5.90;99.90;;;;;;5042917;28;20556;-61
2024/02/01 10:17:28;;;;;;;23.90;13.30;;;5.90;99.90;;;;;;5035933;28;20430;-61
2024/02/01 10:19:54;;;;;;;20.80;12.00;;;5.90;99.90;;;;;;5031973;28;20455;-61
2024/02/01 10:22:20;;;;;;;20.80;10.67;;;5.90;99.90;;;;;;5041218;28;20437;-61
2024/02/01 10:24:49;;;;;;;14.30;8.27;;;5.90;99.90;;;;;;5042738;28;20599;-60
2024/02/01 10:27:22;;;;;;;14.07;7.87;;;5.90;99.90;;;;;;5033652;28;20288;-62
2024/02/01 10:29:48;;;;;;;17.43;8.80;;;5.90;99.90;;;;;;5035653;28;20469;-61
2024/02/01 10:32:15;;;;;;;16.90;9.03;;;6.00;99.90;;;;;;5044709;28;20480;-61
2024/02/01 10:34:51;;;;;;;15.70;8.27;;;6.00;99.90;;;;;;5033611;28;20534;-58
2024/02/01 10:37:18;;;;;;;16.63;7.90;;;6.00;99.90;;;;;;5038381;28;20426;-58
2024/02/01 10:40:07;;;;;;;12.77;7.27;;;6.00;99.90;;;;;;5037970;28;20430;-58
2024/02/01 10:42:34;;;;;;;11.33;6.97;;;6.10;99.90;;;;;;5043815;28;20414;-59
2024/02/01 10:45:05;;;;;;;11.53;7.57;;;6.10;99.90;;;;;;5041942;28;20457;-60
2024/02/01 10:47:36;;;;;;;12.63;7.27;;;6.10;99.90;;;;;;5041965;28;20528;-60
2024/02/01 10:50:03;;;;;;;12.80;6.70;;;6.10;99.90;;;;;;5036801;28;20494;-59
2024/02/01 10:52:30;;;;;;;11.47;7.47;;;6.10;99.90;;;;;;5042133;28;20449;-59
2024/02/01 10:54:56;;;;;;;14.13;7.80;;;6.20;99.90;;;;;;5033409;28;20564;-60
2024/02/01 10:57:23;;;;;;;14.80;8.50;;;6.20;99.90;;;;;;5040839;28;20520;-60
2024/02/01 10:59:50;;;;;;;16.13;7.23;;;6.30;99.90;;;;;;5033997;28;20346;-60
2024/02/01 11:02:18;;;;;;;9.40;7.00;;;6.30;99.90;;;;;;5038059;28;20461;-60
2024/02/01 11:04:48;;;;;;;13.63;7.83;;;6.30;99.90;;;;;;5040183;28;20449;-59
2024/02/01 11:07:23;;;;;;;12.37;7.70;;;6.40;99.90;;;;;;5038818;28;20435;-60
2024/02/01 11:09:50;;;;;;;16.67;8.47;;;6.40;99.90;;;;;;5040194;28;20409;-60
2024/02/01 11:12:22;;;;;;;16.93;8.07;;;6.40;99.90;;;;;;5042969;28;20871;-60
2024/02/01 11:14:48;;;;;;;11.80;6.70;;;6.50;99.90;;;;;;5034954;28;20472;-60
2024/02/01 11:17:23;;;;;;;16.37;7.70;;;6.50;99.90;;;;;;5045564;28;20405;-61
2024/02/01 11:19:51;;;;;;;18.77;7.80;;;6.60;99.90;;;;;;5029137;28;20429;-62
2024/02/01 11:22:18;;;;;;;12.90;7.23;;;6.70;99.90;;;;;;5041794;28;20417;-61
2024/02/01 11:24:44;;;;;;;13.10;7.63;;;6.70;99.90;;;;;;5036031;28;20546;-61
2024/02/01 11:27:19;;;;;;;12.90;7.53;;;6.70;99.90;;;;;;5042324;28;20477;-59
2024/02/01 11:29:50;;;;;;;10.60;7.00;;;6.70;99.90;;;;;;5039436;28;20177;-59
2024/02/01 11:32:17;;;;;;;10.40;6.70;;;6.80;99.90;;;;;;5044777;28;20429;-60
2024/02/01 11:34:49;;;;;;;10.90;6.50;;;6.80;99.90;;;;;;5038482;28;20453;-61
2024/02/01 11:37:16;;;;;;;8.77;5.50;;;6.90;99.90;;;;;;5038277;28;20426;-60
2024/02/01 11:39:49;;;;;;;8.30;6.10;;;6.90;99.90;;;;;;5041231;28;20931;-60
2024/02/01 11:42:16;;;;;;;7.57;4.93;;;7.00;99.90;;;;;;5039786;28;20422;-60
2024/02/01 11:44:42;;;;;;;6.50;4.97;;;7.20;99.90;;;;;;5039940;28;20453;-60
2024/02/01 11:47:09;;;;;;;6.53;4.50;;;7.30;99.90;;;;;;5046147;28;20437;-60
2024/02/01 11:49:36;;;;;;;6.43;4.40;;;7.50;99.90;;;;;;5039011;28;20430;-58
2024/02/01 11:52:36;;;;;;;11.33;3.50;;;7.60;99.90;;;;;;5044775;28;20453;-60
2024/02/01 11:55:04;;;;;;;4.20;2.47;;;7.70;99.90;;;;;;5039211;28;20818;-61
2024/02/01 11:57:32;;;;;;;3.33;2.30;;;7.60;99.90;;;;;;5042079;28;20417;-60
2024/02/01 11:59:58;;;;;;;4.10;2.17;;;7.60;99.90;;;;;;5041801;28;20421;-61
2024/02/01 12:02:30;;;;;;;3.43;2.10;;;7.60;99.90;;;;;;5045315;28;20413;-60
2024/02/01 12:04:56;;;;;;;4.90;1.90;;;7.50;99.90;;;;;;5044767;28;20949;-60
2024/02/01 12:07:23;;;;;;;2.03;1.67;;;7.50;99.90;;;;;;5040781;28;20874;-60
2024/02/01 12:09:49;;;;;;;2.83;1.60;;;7.50;99.90;;;;;;5051032;28;20410;-60
2024/02/01 12:12:23;;;;;;;1.50;1.40;;;7.50;99.90;;;;;;5046492;28;20479;-59
2024/02/01 12:14:54;;;;;;;2.53;1.70;;;7.50;99.90;;;;;;5038079;28;21018;-61
2024/02/01 12:17:24;;;;;;;1.97;1.47;;;7.50;99.90;;;;;;5041969;28;20448;-60
2024/02/01 12:19:51;;;;;;;1.77;1.50;;;7.50;99.90;;;;;;5045072;28;20464;-60
2024/02/01 12:22:19;;;;;;;3.57;1.80;;;7.50;99.90;;;;;;5046500;28;20431;-60
2024/02/01 12:24:45;;;;;;;3.17;2.27;;;7.60;99.90;;;;;;5041072;28;20837;-60
2024/02/01 12:27:12;;;;;;;2.30;1.77;;;7.60;99.90;;;;;;5035643;28;20427;-60
2024/02/01 12:29:38;;;;;;;1.53;1.37;;;7.80;99.90;;;;;;5048021;28;20187;-61
2024/02/01 12:32:11;;;;;;;1.90;1.80;;;8.00;99.90;;;;;;5041893;28;20875;-60
2024/02/01 12:34:39;;;;;;;2.33;2.10;;;8.10;99.90;;;;;;5038615;28;20183;-60
2024/02/01 12:37:05;;;;;;;1.80;1.57;;;8.20;99.90;;;;;;5035688;28;20443;-60
2024/02/01 12:39:36;;;;;;;1.50;1.40;;;8.20;99.90;;;;;;5041556;28;20411;-60
2024/02/01 12:42:03;;;;;;;1.60;1.50;;;8.20;99.90;;;;;;5046926;28;20434;-60
2024/02/01 12:44:33;;;;;;;4.23;2.83;;;8.20;99.90;;;;;;5035691;28;20550;-60
2024/02/01 12:47:00;;;;;;;1.67;1.57;;;8.20;99.90;;;;;;5044851;28;20916;-61
2024/02/01 12:49:25;;;;;;;1.60;1.50;;;8.20;99.90;;;;;;5049027;28;20440;-60
2024/02/01 12:51:53;;;;;;;1.67;1.57;;;8.20;99.90;;;;;;5043633;28;20434;-61
2024/02/01 12:54:20;;;;;;;2.33;1.93;;;8.20;99.90;;;;;;5041927;28;20167;-61
2024/02/01 12:56:47;;;;;;;1.70;1.57;;;8.20;99.90;;;;;;5036424;28;20462;-60
2024/02/01 12:59:13;;;;;;;2.07;1.87;;;8.10;99.90;;;;;;5046403;28;20422;-58
2024/02/01 13:01:39;;;;;;;1.87;1.70;;;8.10;99.90;;;;;;5045338;28;21080;-60
2024/02/01 13:04:05;;;;;;;1.60;1.50;;;8.10;99.90;;;;;;5037485;28;20421;-60
2024/02/01 13:06:31;;;;;;;2.20;1.50;;;8.10;99.90;;;;;;5041654;28;20752;-60
2024/02/01 13:08:57;;;;;;;1.87;1.77;;;8.00;99.90;;;;;;5039764;28;20495;-58
2024/02/01 13:11:27;;;;;;;1.40;1.30;;;8.00;99.90;;;;;;5042998;28;21133;-60
2024/02/01 13:13:57;;;;;;;1.57;1.47;;;8.00;99.90;;;;;;5047580;28;20413;-60
2024/02/01 13:16:27;;;;;;;2.20;1.77;;;8.00;99.90;;;;;;5040766;28;20915;-60
2024/02/01 13:18:58;;;;;;;3.50;1.90;;;7.90;99.90;;;;;;5050042;28;20420;-61
2024/02/01 13:21:24;;;;;;;2.13;1.93;;;7.90;99.90;;;;;;5044241;28;20468;-60
2024/02/01 13:23:51;;;;;;;3.37;1.70;;;7.90;99.90;;;;;;5044728;28;20975;-60
2024/02/01 13:26:16;;;;;;;1.60;1.40;;;7.90;99.90;;;;;;5041082;28;20466;-60
2024/02/01 13:28:42;;;;;;;2.07;1.87;;;7.90;99.90;;;;;;5049989;28;20420;-60